Meppen Air Base

ETWM · Basse-Saxe, Allemagne

METAR anciennes ETWM · Meppen Air Base

Tu vois ci-dessous les METAR des derniers jours. Sélectionne une année pour parcourir les METAR plus anciens, à partir de l'année 2007.

5 décembre 2022

Temps Code Temps Temp. Vue Base cloud Vent METAR/SPECI
05:20
U
4 °C 0 m - 040° 040° 3 kt METAR ETWM 050420Z AUTO 04003KT //// // ////// 04/03 Q1018 ///
05:20
U
4 °C 0 m - 040° 040° 3 kt METAR ETWM 050420Z AUTO 04003KT //// // ////// 04/03 Q1018 ///
04:20
U
4 °C 0 m - 030° 030° 4 kt METAR ETWM 050320Z AUTO 03004KT //// // ////// 04/03 Q1018 ///
03:20
U
4 °C 0 m - 040° 040° 6 kt METAR ETWM 050220Z AUTO 04006KT //// // ////// 04/03 Q1018 ///
02:20
U
4 °C 0 m - 030° 030° 6 kt METAR ETWM 050120Z AUTO 03006KT //// // ////// 04/02 Q1018 ///
01:20
U
4 °C 0 m - 040° 040° 5 kt METAR ETWM 050020Z AUTO 04005KT //// // ////// 04/02 Q1018 ///
00:20
U
4 °C 0 m - 030° 030° 6 kt METAR ETWM 042320Z AUTO 03006KT //// // ////// 04/02 Q1018 ///

4 décembre 2022

Temps Code Temps Temp. Vue Base cloud Vent METAR/SPECI
23:20
U
3 °C 0 m - 040° 040° 7 kt METAR ETWM 042220Z AUTO 04007KT //// // ////// 03/02 Q1018 ///
22:20
U
3 °C 0 m - 040° 040° 6 kt METAR ETWM 042120Z AUTO 04006KT //// // ////// 03/01 Q1019 ///
21:20
U
3 °C 0 m - 040° 040° 4 kt METAR ETWM 042020Z AUTO 04004KT //// // ////// 03/01 Q1019 ///
20:20
U
3 °C 0 m - 060° 060° 6 kt METAR ETWM 041920Z AUTO 06006KT //// // ////// 03/01 Q1019 ///
19:20
U
2 °C 0 m - 050° 050° 7 kt METAR ETWM 041820Z AUTO 05007KT //// // ////// 02/01 Q1019 ///
18:20
U
2 °C 0 m - 040° 040° 8 kt METAR ETWM 041720Z AUTO 04008KT //// // ////// 02/01 Q1018 ///
17:20
U
2 °C 0 m - 040° 040° 4 kt METAR ETWM 041620Z AUTO 04004KT //// // ////// 02/00 Q1019 ///
16:20
U
2 °C 0 m - 050° 050° 7 kt METAR ETWM 041520Z AUTO 05007KT //// // ////// 02/M00 Q1018 ///
15:20
U
2 °C 0 m - 060° 060° 8 kt METAR ETWM 041420Z AUTO 06008KT //// // ////// 02/M01 Q1018 ///
14:20
U
2 °C 0 m - 050° 050° 8 kt METAR ETWM 041320Z AUTO 05008KT //// // ////// 02/M01 Q1018 ///
13:20
U
2 °C 0 m - 060° 060° 8 kt METAR ETWM 041220Z AUTO 06008KT //// // ////// 02/M01 Q1019 ///
12:20
U
2 °C 0 m - 050° 050° 9 kt METAR ETWM 041120Z AUTO 05009KT //// // ////// 02/M01 Q1019 ///
11:20
U
1 °C 0 m - 050° 050° 7 kt METAR ETWM 041020Z AUTO 05007KT //// // ////// 01/M01 Q1019 ///
10:20
U
0 °C 0 m - 060° 060° 9 kt METAR ETWM 040920Z AUTO 06009KT //// // ////// 00/M01 Q1020 ///
09:20
U
0 °C 0 m - 070° 070° 7 kt METAR ETWM 040820Z AUTO 07007KT //// // ////// M00/M01 Q1020 ///
08:20
U
0 °C 0 m - 060° 060° 6 kt METAR ETWM 040720Z AUTO 06006KT //// // ////// M00/M01 Q1019 ///
07:20
U
-1 °C 0 m - 060° 060° 7 kt METAR ETWM 040620Z AUTO 06007KT //// // ////// M01/M02 Q1019 ///
06:20
U
-1 °C 0 m - 060° 060° 7 kt METAR ETWM 040520Z AUTO 06007KT //// // ////// M01/M02 Q1019 ///
05:20
U
-1 °C 0 m - 060° 060° 7 kt METAR ETWM 040420Z AUTO 06007KT //// // ////// M01/M03 Q1019 ///
04:20
U
-1 °C 0 m - 060° 060° 7 kt METAR ETWM 040320Z AUTO 06007KT //// // ////// M01/M03 Q1019 ///
03:20
U
-1 °C 0 m - 070° 070° 5 kt METAR ETWM 040220Z AUTO 07005KT //// // ////// M01/M03 Q1019 ///
02:20
U
-1 °C 0 m - 060° 060° 7 kt METAR ETWM 040120Z AUTO 06007KT //// // ////// M01/M03 Q1020 ///
01:20
U
-1 °C 0 m - 060° 060° 7 kt METAR ETWM 040020Z AUTO 06007KT //// // ////// M01/M03 Q1020 ///
00:20
U
0 °C 0 m - 070° 070° 8 kt METAR ETWM 032320Z AUTO 07008KT //// // ////// M00/M03 Q1020 ///

3 décembre 2022

Temps Code Temps Temp. Vue Base cloud Vent METAR/SPECI
23:20
U
0 °C 0 m - 070° 070° 7 kt METAR ETWM 032220Z AUTO 07007KT //// // ////// M00/M03 Q1020 ///
22:20
U
0 °C 0 m - 070° 070° 7 kt METAR ETWM 032120Z AUTO 07007KT //// // ////// M00/M04 Q1020 ///
21:20
U
0 °C 0 m - 070° 070° 7 kt METAR ETWM 032020Z AUTO 07007KT //// // ////// M00/M04 Q1021 ///
20:20
U
0 °C 0 m - 070° 070° 7 kt METAR ETWM 031920Z AUTO 07007KT //// // ////// M00/M03 Q1021 ///
19:20
U
0 °C 0 m - 060° 060° 8 kt METAR ETWM 031820Z AUTO 06008KT //// // ////// M00/M04 Q1021 ///
18:20
U
0 °C 0 m - 080° 080° 7 kt METAR ETWM 031720Z AUTO 08007KT //// // ////// M00/M04 Q1021 ///
17:20
U
0 °C 0 m - 080° 080° 6 kt METAR ETWM 031620Z AUTO 08006KT //// // ////// M00/M03 Q1021 ///
16:20
U
0 °C 0 m - 070° 070° 6 kt METAR ETWM 031520Z AUTO 07006KT //// // ////// M00/M04 Q1021 ///
15:20
U
0 °C 0 m - 080° 080° 8 kt METAR ETWM 031420Z AUTO 08008KT //// // ////// 00/M04 Q1021 ///
14:20
U
0 °C 0 m - 070° 070° 6 kt METAR ETWM 031320Z AUTO 07006KT //// // ////// 00/M03 Q1022 ///
13:20
U
0 °C 0 m - 050° 050° 8 kt METAR ETWM 031220Z AUTO 05008KT //// // ////// 00/M03 Q1022 ///
12:20
U
0 °C 0 m - 070° 070° 8 kt METAR ETWM 031120Z AUTO 07008KT //// // ////// 00/M03 Q1023 ///
11:20
U
0 °C 0 m - 070° 070° 7 kt METAR ETWM 031020Z AUTO 07007KT //// // ////// 00/M02 Q1023 ///
10:20
U
0 °C 0 m - 060° 060° 7 kt METAR ETWM 030920Z AUTO 06007KT //// // ////// 00/M02 Q1023 ///
09:20
U
0 °C 0 m - 060° 060° 10 kt METAR ETWM 030820Z AUTO 06010KT //// // ////// 00/M03 Q1024 ///
08:20
U
0 °C 0 m - 060° 060° 10 kt METAR ETWM 030720Z AUTO 06010KT //// // ////// 00/M03 Q1024 ///
07:20
U
1 °C 0 m - 070° 070° 9 kt METAR ETWM 030620Z AUTO 07009KT //// // ////// 01/M03 Q1023 ///
06:20
U
1 °C 0 m - 060° 060° 8 kt METAR ETWM 030520Z AUTO 06008KT //// // ////// 01/M02 Q1024 ///
05:20
U
1 °C 0 m - 070° 070° 8 kt METAR ETWM 030420Z AUTO 07008KT //// // ////// 01/M01 Q1024 ///
04:20
U
2 °C 0 m - 060° 060° 6 kt METAR ETWM 030320Z AUTO 06006KT //// // ////// 02/M00 Q1024 ///
03:20
U
2 °C 0 m - 070° 070° 6 kt METAR ETWM 030220Z AUTO 07006KT //// // ////// 02/M00 Q1024 ///
02:20
U
2 °C 0 m - 050° 050° 7 kt METAR ETWM 030120Z AUTO 05007KT //// // ////// 02/M00 Q1024 ///
01:20
U
2 °C 0 m - 030° 030° 7 kt METAR ETWM 030020Z AUTO 03007KT //// // ////// 02/M00 Q1024 ///
00:20
U
2 °C 0 m - 040° 040° 7 kt METAR ETWM 022320Z AUTO 04007KT //// // ////// 02/M00 Q1025 ///

2 décembre 2022

Temps Code Temps Temp. Vue Base cloud Vent METAR/SPECI
23:20
U
2 °C 0 m - 030° 030° 8 kt METAR ETWM 022220Z AUTO 03008KT //// // ////// 02/M01 Q1025 ///
22:20
U
2 °C 0 m - 030° 030° 9 kt METAR ETWM 022120Z AUTO 03009KT //// // ////// 02/M01 Q1025 ///
21:20
U
2 °C 0 m - 060° 060° 8 kt METAR ETWM 022020Z AUTO 06008KT //// // ////// 02/M01 Q1025 ///
20:20
U
2 °C 0 m - 050° 050° 9 kt METAR ETWM 021920Z AUTO 05009KT //// // ////// 02/M02 Q1026 ///
19:20
U
2 °C 0 m - 060° 060° 10 kt METAR ETWM 021820Z AUTO 06010KT //// // ////// 02/M02 Q1026 ///
18:20
U
2 °C 0 m - 060° 060° 9 kt METAR ETWM 021720Z AUTO 06009KT //// // ////// 02/M01 Q1026 ///
17:20
U
2 °C 0 m - 070° 070° 9 kt METAR ETWM 021620Z AUTO 07009KT //// // ////// 02/M01 Q1026 ///
16:20
U
2 °C 0 m - 050° 050° 8 kt METAR ETWM 021520Z AUTO 05008KT //// // ////// 02/M01 Q1025 ///
15:20
U
2 °C 0 m - 060° 060° 9 kt METAR ETWM 021420Z AUTO 06009KT //// // ////// 02/M00 Q1025 ///
14:20
U
2 °C 0 m - 060° 060° 10 kt METAR ETWM 021320Z AUTO 06010KT //// // ////// 02/M00 Q1025 ///
13:20
U
2 °C 0 m - 050° 050° 10 kt METAR ETWM 021220Z AUTO 05010KT //// // ////// 02/M00 Q1025 ///
12:20
U
1 °C 0 m - 050° 050° 10 kt METAR ETWM 021120Z AUTO 05010KT //// // ////// 01/M00 Q1025 ///
11:20
I
1 °C 4,8 km 600 ft 050° 050° 9 kt METAR ETWM 021020Z 05009KT 4800 -DZ BR FEW004 BKN006 01/M00 Q1026 YLO
10:50
I
1 °C 5 km 600 ft 060° 060° 7 kt METAR ETWM 020950Z 06007KT 5000 BR FEW004 BKN006 01/00 Q1026 YLO

Nous et des tiers suivons ton comportement Internet sur notre site Web à l'aide de cookies. Si tu continues, nous supposons que tu es d'accord avec notre Politique en matière de cookies.